createdAt,value
2017-08-06T00:00:39.035Z,99.99
2017-08-06T00:01:39.026Z,99.99
2017-08-06T00:02:39.342Z,99.99
2017-08-06T00:03:39.355Z,99.99
2017-08-06T00:04:39.335Z,99.99
2017-08-06T00:05:39.342Z,99.99
2017-08-06T00:06:39.009Z,99.99
2017-08-06T00:07:39.331Z,99.99
2017-08-06T00:08:39.327Z,99.99
2017-08-06T00:09:39.330Z,99.99
2017-08-06T00:10:39.332Z,99.99
2017-08-06T00:11:39.308Z,99.99
2017-08-06T00:12:39.304Z,99.99
2017-08-06T00:13:39.298Z,99.99
2017-08-06T00:14:39.298Z,99.99
2017-08-06T00:15:39.290Z,99.99
2017-08-06T00:16:39.306Z,99.99
2017-08-06T00:17:38.964Z,99.99
2017-08-06T00:18:38.973Z,99.99
2017-08-06T00:19:39.282Z,99.99
2017-08-06T00:20:39.312Z,99.99
2017-08-06T00:21:39.268Z,99.99
2017-08-06T00:22:39.318Z,99.99
2017-08-06T00:23:38.941Z,99.99
2017-08-06T00:24:39.257Z,99.99
2017-08-06T00:25:39.252Z,99.99
2017-08-06T00:26:39.246Z,99.99
2017-08-06T00:27:38.924Z,99.99
2017-08-06T00:28:38.952Z,99.99
2017-08-06T00:29:39.250Z,99.99
2017-08-06T00:30:39.245Z,99.99
2017-08-06T00:31:39.220Z,99.99
2017-08-06T00:32:39.258Z,99.99
2017-08-06T00:33:38.896Z,99.99
2017-08-06T00:34:39.209Z,99.99
2017-08-06T00:35:38.886Z,99.99
2017-08-06T00:36:38.892Z,99.99
2017-08-06T00:37:39.196Z,99.99
2017-08-06T00:38:39.189Z,99.99
2017-08-06T00:39:39.185Z,99.99
2017-08-06T00:40:39.187Z,99.99
2017-08-06T00:41:38.870Z,99.99
2017-08-06T00:42:39.176Z,99.99
2017-08-06T00:43:39.168Z,99.99
2017-08-06T00:44:39.165Z,99.99
2017-08-06T00:45:39.177Z,99.99
2017-08-06T00:46:38.831Z,99.99
2017-08-06T00:47:39.154Z,99.99
2017-08-06T00:48:39.145Z,99.99
2017-08-06T00:49:39.156Z,99.99
2017-08-06T00:50:39.144Z,99.99
2017-08-06T00:51:39.131Z,99.99
2017-08-06T00:52:39.134Z,99.99
2017-08-06T00:53:38.811Z,99.99
2017-08-06T00:54:39.120Z,99.99
2017-08-06T00:55:39.111Z,99.99
2017-08-06T00:56:39.106Z,99.99
2017-08-06T00:57:39.102Z,99.99
2017-08-06T00:58:39.102Z,99.99
2017-08-06T00:59:39.117Z,99.99
2017-08-06T01:00:39.097Z,99.99
2017-08-06T01:01:39.089Z,99.99
2017-08-06T01:02:39.081Z,99.99
2017-08-06T01:03:38.753Z,99.99
2017-08-06T01:04:38.748Z,99.99
2017-08-06T01:05:38.758Z,99.99
2017-08-06T01:06:39.079Z,99.99
2017-08-06T01:07:39.052Z,99.99
2017-08-06T01:08:39.052Z,99.99
2017-08-06T01:09:39.050Z,99.99
2017-08-06T01:10:39.045Z,99.99
2017-08-06T01:11:39.035Z,99.99
2017-08-06T01:12:38.705Z,99.99
2017-08-06T01:13:39.018Z,99.99
2017-08-06T01:14:39.019Z,99.99
2017-08-06T01:15:38.717Z,99.99
2017-08-06T01:16:39.018Z,99.99
2017-08-06T01:17:39.015Z,99.99
2017-08-06T01:18:38.685Z,99.99
2017-08-06T01:19:38.692Z,99.99
2017-08-06T01:20:38.982Z,99.99
2017-08-06T01:21:38.984Z,99.99
2017-08-06T01:22:38.980Z,99.99
2017-08-06T01:23:38.970Z,99.99
2017-08-06T01:24:38.646Z,99.99
2017-08-06T01:25:38.968Z,99.99
2017-08-06T01:26:38.979Z,99.99
2017-08-06T01:27:38.959Z,99.99
2017-08-06T01:28:38.946Z,99.99
2017-08-06T01:29:38.957Z,99.99
2017-08-06T01:30:38.934Z,99.99
2017-08-06T01:31:38.932Z,99.99
2017-08-06T01:32:38.924Z,99.99
2017-08-06T01:33:38.921Z,99.99
2017-08-06T01:34:38.962Z,99.99
2017-08-06T01:35:38.911Z,99.99
2017-08-06T01:36:38.910Z,99.99
2017-08-06T01:37:38.902Z,99.99
2017-08-06T01:38:38.895Z,99.99
2017-08-06T01:39:38.569Z,99.99
2017-08-06T01:40:38.885Z,99.99
2017-08-06T01:41:38.879Z,99.99
2017-08-06T01:42:38.881Z,99.99
2017-08-06T01:43:38.550Z,99.99
2017-08-06T01:44:38.542Z,99.99
2017-08-06T01:45:38.860Z,99.99
2017-08-06T01:46:38.850Z,99.99
2017-08-06T01:47:38.845Z,99.99
2017-08-06T01:48:38.520Z,99.99
2017-08-06T01:49:38.539Z,99.99
2017-08-06T01:50:38.837Z,99.99
2017-08-06T01:51:38.828Z,99.99
2017-08-06T01:52:38.822Z,99.99
2017-08-06T01:53:38.496Z,99.99
2017-08-06T01:54:38.814Z,99.99
2017-08-06T01:55:38.808Z,99.99
2017-08-06T01:56:38.485Z,99.99
2017-08-06T01:57:38.472Z,99.99
2017-08-06T01:58:38.789Z,99.99
2017-08-06T01:59:38.463Z,99.99
2017-08-06T02:00:38.455Z,99.99
2017-08-06T02:01:38.770Z,99.99
2017-08-06T02:02:38.775Z,99.99
2017-08-06T02:03:38.786Z,99.99
2017-08-06T02:04:38.762Z,99.99
2017-08-06T02:05:38.428Z,99.99
2017-08-06T02:06:38.770Z,99.99
2017-08-06T02:07:38.738Z,99.99
2017-08-06T02:08:38.736Z,99.99
2017-08-06T02:09:38.423Z,99.99
2017-08-06T02:10:38.725Z,99.99
2017-08-06T02:11:38.396Z,99.99
2017-08-06T02:12:38.390Z,99.99
2017-08-06T02:13:38.707Z,99.99
2017-08-06T02:14:38.717Z,99.99
2017-08-06T02:15:38.694Z,99.99
2017-08-06T02:16:38.371Z,99.99
2017-08-06T02:17:38.782Z,99.99
2017-08-06T02:18:38.701Z,99.99
2017-08-06T02:19:38.351Z,99.99
2017-08-06T02:20:38.669Z,99.99
2017-08-06T02:21:38.339Z,99.99
2017-08-06T02:22:38.336Z,99.99
2017-08-06T02:23:38.332Z,99.99
2017-08-06T02:24:38.650Z,99.99
2017-08-06T02:25:38.641Z,99.99
2017-08-06T02:26:38.312Z,99.99
2017-08-06T02:27:38.314Z,99.99
2017-08-06T02:28:38.624Z,99.99
2017-08-06T02:29:38.616Z,99.99
2017-08-06T02:30:38.632Z,99.99
2017-08-06T02:31:38.607Z,99.99
2017-08-06T02:32:38.600Z,99.99
2017-08-06T02:33:38.593Z,99.99
2017-08-06T02:34:38.595Z,99.99
2017-08-06T02:35:38.581Z,99.99
2017-08-06T02:36:38.584Z,99.99
2017-08-06T02:37:38.253Z,99.99
2017-08-06T02:38:38.574Z,99.99
2017-08-06T02:39:38.557Z,99.99
2017-08-06T02:40:38.549Z,99.99
2017-08-06T02:41:38.562Z,99.99
2017-08-06T02:42:38.540Z,99.99
2017-08-06T02:43:38.531Z,99.99
2017-08-06T02:44:38.545Z,99.99
2017-08-06T02:45:38.520Z,99.99
2017-08-06T02:46:38.544Z,99.99
2017-08-06T02:47:38.524Z,99.99
2017-08-06T02:48:38.506Z,99.99
2017-08-06T02:49:38.516Z,99.99
2017-08-06T02:50:38.498Z,99.99
2017-08-06T02:51:38.506Z,99.99
2017-08-06T02:52:38.478Z,99.99
2017-08-06T02:53:38.172Z,99.99
2017-08-06T02:54:38.480Z,99.99
2017-08-06T02:55:38.460Z,99.99
2017-08-06T02:56:38.504Z,99.99
2017-08-06T02:57:38.453Z,99.99
2017-08-06T02:58:38.443Z,99.99
2017-08-06T02:59:38.121Z,99.99
2017-08-06T03:00:38.432Z,99.99
2017-08-06T03:01:38.458Z,99.99
2017-08-06T03:02:38.426Z,99.99
2017-08-06T03:03:38.444Z,99.99
2017-08-06T03:04:38.089Z,99.99
2017-08-06T03:05:38.088Z,99.99
2017-08-06T03:06:38.393Z,99.99
2017-08-06T03:07:38.387Z,99.99
2017-08-06T03:08:38.072Z,99.99
2017-08-06T03:09:38.383Z,99.99
2017-08-06T03:10:38.373Z,99.99
2017-08-06T03:11:38.364Z,99.99
2017-08-06T03:12:38.038Z,99.99
2017-08-06T03:13:38.375Z,99.99
2017-08-06T03:14:38.365Z,99.99
2017-08-06T03:15:38.348Z,99.99
2017-08-06T03:16:38.338Z,99.99
2017-08-06T03:17:38.328Z,99.99
2017-08-06T03:18:38.329Z,99.99
2017-08-06T03:19:38.317Z,99.99
2017-08-06T03:20:38.310Z,99.99
2017-08-06T03:21:38.304Z,99.99
2017-08-06T03:22:38.303Z,99.99
2017-08-06T03:23:38.290Z,99.99
2017-08-06T03:24:38.287Z,99.99
2017-08-06T03:25:37.964Z,99.99
2017-08-06T03:26:38.274Z,99.99
2017-08-06T03:27:38.269Z,99.99
2017-08-06T03:28:38.265Z,99.99
2017-08-06T03:29:38.284Z,99.99
2017-08-06T03:30:38.268Z,99.99
2017-08-06T03:31:38.242Z,99.99
2017-08-06T03:32:38.241Z,99.99
2017-08-06T03:33:38.235Z,99.99
2017-08-06T03:34:37.909Z,99.99
2017-08-06T03:35:38.220Z,99.99
2017-08-06T03:36:38.224Z,99.99
2017-08-06T03:37:38.230Z,99.99
2017-08-06T03:38:37.883Z,99.99
2017-08-06T03:39:37.877Z,99.99
2017-08-06T03:40:37.912Z,99.99
2017-08-06T03:41:38.184Z,99.99
2017-08-06T03:42:38.180Z,99.99
2017-08-06T03:43:37.854Z,99.99
2017-08-06T03:44:37.862Z,99.99
2017-08-06T03:45:38.181Z,99.99
2017-08-06T03:46:37.870Z,99.99
2017-08-06T03:47:38.174Z,99.99
2017-08-06T03:48:38.143Z,99.99
2017-08-06T03:49:37.815Z,99.99
2017-08-06T03:50:38.134Z,99.99
2017-08-06T03:51:38.126Z,99.99
2017-08-06T03:52:38.120Z,99.99
2017-08-06T03:53:38.118Z,99.99
2017-08-06T03:54:38.113Z,99.99
2017-08-06T03:55:37.783Z,99.99
2017-08-06T03:56:38.097Z,99.99
2017-08-06T03:57:38.089Z,99.99
2017-08-06T03:58:38.093Z,99.99
2017-08-06T03:59:38.076Z,99.99
2017-08-06T04:00:37.760Z,99.99
2017-08-06T04:01:38.068Z,99.99
2017-08-06T04:02:38.057Z,99.99
2017-08-06T04:03:38.052Z,99.99
2017-08-06T04:04:38.044Z,99.99
2017-08-06T04:05:38.039Z,99.99
2017-08-06T04:06:38.035Z,99.99
2017-08-06T04:07:38.028Z,99.99
2017-08-06T04:08:38.023Z,99.99
2017-08-06T04:09:37.717Z,99.99
2017-08-06T04:10:37.712Z,99.99
2017-08-06T04:11:37.692Z,99.99
2017-08-06T04:12:37.682Z,99.99
2017-08-06T04:13:37.671Z,99.99
2017-08-06T04:14:37.668Z,99.99
2017-08-06T04:15:37.674Z,99.99
2017-08-06T04:16:37.978Z,99.99
2017-08-06T04:17:37.967Z,99.99
2017-08-06T04:18:37.659Z,99.99
2017-08-06T04:19:37.637Z,99.99
2017-08-06T04:20:37.950Z,99.99
2017-08-06T04:21:37.951Z,99.99
2017-08-06T04:22:37.937Z,99.99
2017-08-06T04:23:37.964Z,99.99
2017-08-06T04:24:37.928Z,99.99
2017-08-06T04:25:37.922Z,99.99
2017-08-06T04:26:37.933Z,99.99
2017-08-06T04:27:37.927Z,99.99
2017-08-06T04:28:37.915Z,99.99
2017-08-06T04:29:37.899Z,99.99
2017-08-06T04:30:37.570Z,99.99
2017-08-06T04:31:37.887Z,99.99
2017-08-06T04:32:37.891Z,99.99
2017-08-06T04:33:37.878Z,99.99
2017-08-06T04:34:37.590Z,99.99
2017-08-06T04:35:37.864Z,99.99
2017-08-06T04:36:37.857Z,99.99
2017-08-06T04:37:37.857Z,99.99
2017-08-06T04:38:37.865Z,99.99
2017-08-06T04:39:37.843Z,99.99
2017-08-06T04:40:37.836Z,99.99
2017-08-06T04:41:37.837Z,99.99
2017-08-06T04:42:37.504Z,99.99
2017-08-06T04:43:37.842Z,99.99
2017-08-06T04:44:37.815Z,99.99
2017-08-06T04:45:37.809Z,99.99
2017-08-06T04:46:37.810Z,99.99
2017-08-06T04:47:37.796Z,99.99
2017-08-06T04:48:37.793Z,99.99
2017-08-06T04:49:37.515Z,99.99
2017-08-06T04:50:37.466Z,99.99
2017-08-06T04:51:37.823Z,99.99
2017-08-06T04:52:37.781Z,99.99
2017-08-06T04:53:37.445Z,99.99
2017-08-06T04:54:37.766Z,99.99
2017-08-06T04:55:37.760Z,99.99
2017-08-06T04:56:37.753Z,99.99
2017-08-06T04:57:37.750Z,99.99
2017-08-06T04:58:37.739Z,99.99
2017-08-06T04:59:37.735Z,99.99
2017-08-06T05:00:37.747Z,99.99
2017-08-06T05:01:37.745Z,99.99
2017-08-06T05:02:37.728Z,99.99
2017-08-06T05:03:37.712Z,99.99
2017-08-06T05:04:37.708Z,99.99
2017-08-06T05:05:37.741Z,99.99
2017-08-06T05:06:37.698Z,99.99
2017-08-06T05:07:37.429Z,99.99
2017-08-06T05:08:37.689Z,99.99
2017-08-06T05:09:37.693Z,99.99
2017-08-06T05:10:37.681Z,99.99
2017-08-06T05:11:37.689Z,99.99
2017-08-06T05:12:37.349Z,99.99
2017-08-06T05:13:37.664Z,99.99
2017-08-06T05:14:37.715Z,99.99
2017-08-06T05:15:37.664Z,99.99
2017-08-06T05:16:37.655Z,99.99
2017-08-06T05:17:37.646Z,99.99
2017-08-06T05:18:37.658Z,99.99
2017-08-06T05:19:37.639Z,99.99
2017-08-06T05:20:37.655Z,99.99
2017-08-06T05:21:37.325Z,99.99
2017-08-06T05:22:37.626Z,99.99
2017-08-06T05:23:37.325Z,99.99
2017-08-06T05:24:37.290Z,99.99
2017-08-06T05:25:37.607Z,99.99
2017-08-06T05:26:37.599Z,99.99
2017-08-06T05:27:37.601Z,99.67
2017-08-06T05:28:37.597Z,97.47
2017-08-06T05:29:37.586Z,96.8
2017-08-06T05:30:37.586Z,97.28
2017-08-06T05:31:37.577Z,97.75
2017-08-06T05:32:37.251Z,99.48
2017-08-06T05:33:37.570Z,99.86
2017-08-06T05:34:37.575Z,98.04
2017-08-06T05:35:37.563Z,98.43
2017-08-06T05:36:37.238Z,98.04
2017-08-06T05:37:37.229Z,97.18
2017-08-06T05:38:37.552Z,97.28
2017-08-06T05:39:37.543Z,98.33
2017-08-06T05:40:37.218Z,97.66
2017-08-06T05:41:37.533Z,97.33
2017-08-06T05:42:37.531Z,97.04
2017-08-06T05:43:37.561Z,95.61
2017-08-06T05:44:37.201Z,94.55
2017-08-06T05:45:37.540Z,93.98
2017-08-06T05:46:37.214Z,93.21
2017-08-06T05:47:37.526Z,92.16
2017-08-06T05:48:37.511Z,92.35
2017-08-06T05:49:37.498Z,92.73
2017-08-06T05:50:37.501Z,92.63
2017-08-06T05:51:37.171Z,92.68
2017-08-06T05:52:37.167Z,92.49
2017-08-06T05:53:37.481Z,90.77
2017-08-06T05:54:37.161Z,92.49
2017-08-06T05:55:37.497Z,92.4
2017-08-06T05:56:37.484Z,94.69
2017-08-06T05:57:37.467Z,95.65
2017-08-06T05:58:37.145Z,96.03
2017-08-06T05:59:37.465Z,94.79
2017-08-06T06:00:37.140Z,92.97
2017-08-06T06:01:37.465Z,90.67
2017-08-06T06:02:37.128Z,90.09
2017-08-06T06:03:37.125Z,90.53
2017-08-06T06:04:37.119Z,90.48
2017-08-06T06:05:37.117Z,90.58
2017-08-06T06:06:37.437Z,90.96
2017-08-06T06:07:37.437Z,90.58
2017-08-06T06:08:37.428Z,90.09
2017-08-06T06:09:37.442Z,88.47
2017-08-06T06:10:37.424Z,86.69
2017-08-06T06:11:37.415Z,85.98
2017-08-06T06:12:37.095Z,87.61
2017-08-06T06:13:37.409Z,88.09
2017-08-06T06:14:37.441Z,87.7
2017-08-06T06:15:37.130Z,87.08
2017-08-06T06:16:37.420Z,87.37
2017-08-06T06:17:37.396Z,86.6
2017-08-06T06:18:37.398Z,86.69
2017-08-06T06:19:37.388Z,87.27
2017-08-06T06:20:37.385Z,87.84
2017-08-06T06:21:37.388Z,85.83
2017-08-06T06:22:37.059Z,86.21
2017-08-06T06:23:37.055Z,86.6
2017-08-06T06:24:37.372Z,85.64
2017-08-06T06:25:37.369Z,85.83
2017-08-06T06:26:37.362Z,86.69
2017-08-06T06:27:37.373Z,87.08
2017-08-06T06:28:37.057Z,87.84
2017-08-06T06:29:37.037Z,87.65
2017-08-06T06:30:37.353Z,87.17
2017-08-06T06:31:37.346Z,87.17
2017-08-06T06:32:37.345Z,87.27
2017-08-06T06:33:37.342Z,86.6
2017-08-06T06:34:37.039Z,85.83
2017-08-06T06:35:37.030Z,87.17
2017-08-06T06:36:37.335Z,86.5
2017-08-06T06:37:37.327Z,86.5
2017-08-06T06:38:37.327Z,87.08
2017-08-06T06:39:37.003Z,86.02
2017-08-06T06:40:37.321Z,85.16
2017-08-06T06:41:36.994Z,85.06
2017-08-06T06:42:36.990Z,84.39
2017-08-06T06:43:37.308Z,84.91
2017-08-06T06:44:37.327Z,83.58
2017-08-06T06:45:37.324Z,82.52
2017-08-06T06:46:37.298Z,81.95
2017-08-06T06:47:37.302Z,82.42
2017-08-06T06:48:36.975Z,82.23
2017-08-06T06:49:37.313Z,81.27
2017-08-06T06:50:37.287Z,81.08
2017-08-06T06:51:36.967Z,80.41
2017-08-06T06:52:36.969Z,80.32
2017-08-06T06:53:37.296Z,79.74
2017-08-06T06:54:37.272Z,80.26
2017-08-06T06:55:37.291Z,80.07
2017-08-06T06:56:37.283Z,79.49
2017-08-06T06:57:36.944Z,79.53
2017-08-06T06:58:37.267Z,77.23
2017-08-06T06:59:37.273Z,76.94
2017-08-06T07:00:37.273Z,77.13
2017-08-06T07:01:37.255Z,76.75
2017-08-06T07:02:37.266Z,77.71
2017-08-06T07:03:37.250Z,77.42
2017-08-06T07:04:37.266Z,77.04
2017-08-06T07:05:37.254Z,77.13
2017-08-06T07:06:36.921Z,77.23
2017-08-06T07:07:37.261Z,76.84
2017-08-06T07:08:37.237Z,77.04
2017-08-06T07:09:37.236Z,77.51
2017-08-06T07:10:37.231Z,77.51
2017-08-06T07:11:37.242Z,77.46
2017-08-06T07:12:36.933Z,77.08
2017-08-06T07:13:36.905Z,76.02
2017-08-06T07:14:37.226Z,75.82
2017-08-06T07:15:37.225Z,73.81
2017-08-06T07:16:37.221Z,74.77
2017-08-06T07:17:37.216Z,76.07
2017-08-06T07:18:37.215Z,77.33
2017-08-06T07:19:37.208Z,77.71
2017-08-06T07:20:37.227Z,76.75
2017-08-06T07:21:36.885Z,77.23
2017-08-06T07:22:37.203Z,76.71
2017-08-06T07:23:37.203Z,78.72
2017-08-06T07:24:36.878Z,79.97
2017-08-06T07:25:37.199Z,80.35
2017-08-06T07:26:37.195Z,79.68
2017-08-06T07:27:37.196Z,78.82
2017-08-06T07:28:37.196Z,79.01
2017-08-06T07:29:37.188Z,78.47
2017-08-06T07:30:36.865Z,77.94
2017-08-06T07:31:36.880Z,77.56
2017-08-06T07:32:37.178Z,76.79
2017-08-06T07:33:37.216Z,76.06
2017-08-06T07:34:37.196Z,75.45
2017-08-06T07:35:37.205Z,76.12
2017-08-06T07:36:37.171Z,76.12
2017-08-06T07:37:36.865Z,74.19
2017-08-06T07:38:37.169Z,74.26
2017-08-06T07:39:37.163Z,75.79
2017-08-06T07:40:37.164Z,76.37
2017-08-06T07:41:37.162Z,77.09
2017-08-06T07:42:49.597Z,77.86
2017-08-06T07:43:37.174Z,79.39
2017-08-06T07:44:36.835Z,78.44
2017-08-06T07:45:36.846Z,78.25
2017-08-06T07:46:36.831Z,78.34
2017-08-06T07:47:37.150Z,77.86
2017-08-06T07:48:37.174Z,75.06
2017-08-06T07:49:37.145Z,70.65
2017-08-06T07:50:37.150Z,65.46
2017-08-06T07:51:37.142Z,61.13
2017-08-06T07:52:37.142Z,56.84
2017-08-06T07:53:37.138Z,55.38
2017-08-06T07:54:37.135Z,53.67
2017-08-06T07:55:37.134Z,50.16
2017-08-06T07:56:37.156Z,49.46
2017-08-06T07:57:37.136Z,50.4
2017-08-06T07:58:37.135Z,52.39
2017-08-06T07:59:37.132Z,54.55
2017-08-06T08:00:37.163Z,56.14
2017-08-06T08:01:37.138Z,58.4
2017-08-06T08:02:37.132Z,60.2
2017-08-06T08:03:37.155Z,61.87
2017-08-06T08:04:37.128Z,62.9
2017-08-06T08:05:37.129Z,65.08
2017-08-06T08:06:37.127Z,66.39
2017-08-06T08:07:37.128Z,67.25
2017-08-06T08:08:37.127Z,66.23
2017-08-06T08:09:37.124Z,66.04
2017-08-06T08:10:37.123Z,64.73
2017-08-06T08:11:37.124Z,64.63
2017-08-06T08:12:37.135Z,64.05
2017-08-06T08:13:37.120Z,64.15
2017-08-06T08:14:37.117Z,63.86
2017-08-06T08:15:37.120Z,64.47
2017-08-06T08:16:37.119Z,64.15
2017-08-06T08:17:37.121Z,63.95
2017-08-06T08:18:37.112Z,64.34
2017-08-06T08:19:37.111Z,64.4
2017-08-06T08:20:37.114Z,66.23
2017-08-06T08:21:36.790Z,66.33
2017-08-06T08:22:37.112Z,64.85
2017-08-06T08:23:36.802Z,66.39
2017-08-06T08:24:37.108Z,68.6
2017-08-06T08:25:37.113Z,71.58
2017-08-06T08:26:37.106Z,70.72
2017-08-06T08:27:37.133Z,69.46
2017-08-06T08:28:37.125Z,66.64
2017-08-06T08:29:36.785Z,64.76
2017-08-06T08:30:36.786Z,65.2
2017-08-06T08:31:37.113Z,66.16
2017-08-06T08:32:37.098Z,67.03
2017-08-06T08:33:37.109Z,68.95
2017-08-06T08:34:37.091Z,68.6
2017-08-06T08:35:37.093Z,70.52
2017-08-06T08:36:37.099Z,67.38
2017-08-06T08:37:37.094Z,69.02
2017-08-06T08:38:36.769Z,68.06
2017-08-06T08:39:37.090Z,64.34
2017-08-06T08:40:37.102Z,65.69
2017-08-06T08:41:37.110Z,65.3
2017-08-06T08:42:37.091Z,64.73
2017-08-06T08:43:37.103Z,63.06
2017-08-06T08:44:37.082Z,64.95
2017-08-06T08:45:37.081Z,65.81
2017-08-06T08:46:37.105Z,65.91
2017-08-06T08:47:37.080Z,65.62
2017-08-06T08:48:37.094Z,64.56
2017-08-06T08:49:36.764Z,64.47
2017-08-06T08:50:37.079Z,64.85
2017-08-06T08:51:37.097Z,63.02
2017-08-06T08:52:36.753Z,62.64
2017-08-06T08:53:37.072Z,63.35
2017-08-06T08:54:37.077Z,63.15
2017-08-06T08:55:37.077Z,63.15
2017-08-06T08:56:37.069Z,63.25
2017-08-06T08:57:36.743Z,62.48
2017-08-06T08:58:37.065Z,62.68
2017-08-06T08:59:37.068Z,63.64
2017-08-06T09:00:36.743Z,64.02
2017-08-06T09:01:37.062Z,65.08
2017-08-06T09:02:37.065Z,66.46
2017-08-06T09:03:36.738Z,65.59
2017-08-06T09:04:36.736Z,63.18
2017-08-06T09:05:36.738Z,61.94
2017-08-06T09:06:36.735Z,62.61
2017-08-06T09:07:36.735Z,63.09
2017-08-06T09:08:36.744Z,63.64
2017-08-06T09:09:37.057Z,64.79
2017-08-06T09:10:37.055Z,64.66
2017-08-06T09:11:37.050Z,64.22
2017-08-06T09:12:37.067Z,64.37
2017-08-06T09:13:37.051Z,64.31
2017-08-06T09:14:37.046Z,62.68
2017-08-06T09:15:37.048Z,61.43
2017-08-06T09:16:37.046Z,60.59
2017-08-06T09:17:37.049Z,66.2
2017-08-06T09:18:37.042Z,62.64
2017-08-06T09:19:36.718Z,61.19
2017-08-06T09:20:37.046Z,60.36
2017-08-06T09:21:37.042Z,59.11
2017-08-06T09:22:37.053Z,59.69
2017-08-06T09:23:37.042Z,60.65
2017-08-06T09:24:37.041Z,60.55
2017-08-06T09:25:36.717Z,59.4
2017-08-06T09:26:37.059Z,56.32
2017-08-06T09:27:37.039Z,56.32
2017-08-06T09:28:37.037Z,57.67
2017-08-06T09:29:36.715Z,58.53
2017-08-06T09:30:37.041Z,58.22
2017-08-06T09:31:36.713Z,58.7
2017-08-06T09:32:37.045Z,58.79
2017-08-06T09:33:37.047Z,59.85
2017-08-06T09:34:37.033Z,59.44
2017-08-06T09:35:37.061Z,59.34
2017-08-06T09:36:37.057Z,60.75
2017-08-06T09:37:37.033Z,61.14
2017-08-06T09:38:37.031Z,61.81
2017-08-06T09:39:37.037Z,62.35
2017-08-06T09:40:36.719Z,64.56
2017-08-06T09:41:36.709Z,63.54
2017-08-06T09:42:36.716Z,62.58
2017-08-06T09:43:37.026Z,60.46
2017-08-06T09:44:37.030Z,60.17
2017-08-06T09:45:37.028Z,60.11
2017-08-06T09:46:36.706Z,59.92
2017-08-06T09:47:37.025Z,62.51
2017-08-06T09:48:37.050Z,61.16
2017-08-06T09:49:37.093Z,59.44
2017-08-06T09:50:36.701Z,58.54
2017-08-06T09:51:37.021Z,59.31
2017-08-06T09:52:37.025Z,58.25
2017-08-06T09:53:36.696Z,56.91
2017-08-06T09:54:37.018Z,59.12
2017-08-06T09:55:36.693Z,61.01
2017-08-06T09:56:36.695Z,60.43
2017-08-06T09:57:37.020Z,62.16
2017-08-06T09:58:37.027Z,61.01
2017-08-06T09:59:37.011Z,60.05
2017-08-06T10:00:37.013Z,60.17
2017-08-06T10:01:37.010Z,58.7
2017-08-06T10:02:37.032Z,58.61
2017-08-06T10:03:36.683Z,59.89
2017-08-06T10:04:37.009Z,60.56
2017-08-06T10:05:37.005Z,59.69
2017-08-06T10:06:36.682Z,58.18
2017-08-06T10:07:37.001Z,57.8
2017-08-06T10:08:37.019Z,57.25
2017-08-06T10:09:36.998Z,56.58
2017-08-06T10:10:36.679Z,55.9
2017-08-06T10:11:36.674Z,56.1
2017-08-06T10:12:36.678Z,55.33
2017-08-06T10:13:37.015Z,53.91
2017-08-06T10:14:36.998Z,51.98
2017-08-06T10:15:37.016Z,52.47
2017-08-06T10:16:36.994Z,55.45
2017-08-06T10:17:36.675Z,52.75
2017-08-06T10:18:36.987Z,53.62
2017-08-06T10:19:36.711Z,50.73
2017-08-06T10:20:36.986Z,50.83
2017-08-06T10:21:36.988Z,50.45
2017-08-06T10:22:36.667Z,51.98
2017-08-06T10:23:36.985Z,52.37
2017-08-06T10:24:36.681Z,54.39
2017-08-06T10:25:36.995Z,54.49
2017-08-06T10:26:36.661Z,55.35
2017-08-06T10:27:36.660Z,56.12
2017-08-06T10:28:36.661Z,54.87
2017-08-06T10:29:37.002Z,53.5
2017-08-06T10:30:36.992Z,55.23
2017-08-06T10:31:36.978Z,52.08
2017-08-06T10:32:36.670Z,51.53
2017-08-06T10:33:36.979Z,51.05
2017-08-06T10:34:36.879Z,54.8
2017-08-06T10:35:36.703Z,53.17
2017-08-06T10:36:36.979Z,51.72
2017-08-06T10:37:36.976Z,50.11
2017-08-06T10:38:37.008Z,49.53
2017-08-06T10:39:36.977Z,48.4
2017-08-06T10:40:36.983Z,49.65
2017-08-06T10:41:36.977Z,50.13
2017-08-06T10:42:36.683Z,51.56
2017-08-06T10:43:36.655Z,51.46
2017-08-06T10:44:36.979Z,51.65
2017-08-06T10:45:36.976Z,50.95
2017-08-06T10:46:36.978Z,52.4
2017-08-06T10:47:36.669Z,53.27
2017-08-06T10:48:36.980Z,54.3
2017-08-06T10:49:36.978Z,54.08
2017-08-06T10:50:36.656Z,53.98
2017-08-06T10:51:36.995Z,55.9
2017-08-06T10:52:36.980Z,55.33
2017-08-06T10:53:36.653Z,55.59
2017-08-06T10:54:36.652Z,55.98
2017-08-06T10:55:36.691Z,58.47
2017-08-06T10:56:36.978Z,59.17
2017-08-06T10:57:36.992Z,56.38
2017-08-06T10:58:36.973Z,56.41
2017-08-06T10:59:36.999Z,53.91
2017-08-06T11:00:36.654Z,54.68
2017-08-06T11:01:36.975Z,58.34
2017-08-06T11:02:36.978Z,55.38
2017-08-06T11:03:36.975Z,53.55
2017-08-06T11:04:36.975Z,53.09
2017-08-06T11:05:36.653Z,51.26
2017-08-06T11:06:36.974Z,50.11
2017-08-06T11:07:37.013Z,50.11
2017-08-06T11:08:36.973Z,52.23
2017-08-06T11:09:36.674Z,54.22
2017-08-06T11:10:36.657Z,53.65
2017-08-06T11:11:36.976Z,50.95
2017-08-06T11:12:36.974Z,48.74
2017-08-06T11:13:36.975Z,49.68
2017-08-06T11:14:36.992Z,49.77
2017-08-06T11:15:36.969Z,50.32
2017-08-06T11:16:36.988Z,52.63
2017-08-06T11:17:37.013Z,54.94
2017-08-06T11:18:36.970Z,50.83
2017-08-06T11:19:36.974Z,49.58
2017-08-06T11:20:36.982Z,51.5
2017-08-06T11:21:36.995Z,55.65
2017-08-06T11:22:36.972Z,55.16
2017-08-06T11:23:36.665Z,53.78
2017-08-06T11:24:36.974Z,53.98
2017-08-06T11:25:36.985Z,54.27
2017-08-06T11:26:36.972Z,54.43
2017-08-06T11:27:36.651Z,56.45
2017-08-06T11:28:36.972Z,55.81
2017-08-06T11:29:36.969Z,54.17
2017-08-06T11:30:36.974Z,54.17
2017-08-06T11:31:36.977Z,55.52
2017-08-06T11:32:36.970Z,53.59
2017-08-06T11:33:36.968Z,54.08
2017-08-06T11:34:36.646Z,53.78
2017-08-06T11:35:36.647Z,55.04
2017-08-06T11:36:36.992Z,54.97
2017-08-06T11:37:36.969Z,54.3
2017-08-06T11:38:36.665Z,54.2
2017-08-06T11:39:36.646Z,55.45
2017-08-06T11:40:36.988Z,54.58
2017-08-06T11:41:36.966Z,55.57
2017-08-06T11:42:36.645Z,53.94
2017-08-06T11:43:36.970Z,52.59
2017-08-06T11:44:36.645Z,51.46
2017-08-06T11:45:36.661Z,51.17
2017-08-06T11:46:36.648Z,47.22
2017-08-06T11:47:36.987Z,47.03
2017-08-06T11:48:36.972Z,47.8
2017-08-06T11:49:36.653Z,47.8
2017-08-06T11:50:36.967Z,46.55
2017-08-06T11:51:36.968Z,47.8
2017-08-06T11:52:36.649Z,47.89
2017-08-06T11:53:36.967Z,48.18
2017-08-06T11:54:36.967Z,49.05
2017-08-06T11:55:36.648Z,50.52
2017-08-06T11:56:36.969Z,49.17
2017-08-06T11:57:36.975Z,47.63
2017-08-06T11:58:37.522Z,48.21
2017-08-06T11:59:36.968Z,50.21
2017-08-06T12:00:36.969Z,51.2
2017-08-06T12:01:36.999Z,49.07
2017-08-06T12:02:36.649Z,47.72
2017-08-06T12:03:36.971Z,49.94
2017-08-06T12:04:36.974Z,50.62
2017-08-06T12:05:36.994Z,52.06
2017-08-06T12:06:36.981Z,52.64
2017-08-06T12:07:36.659Z,49.94
2017-08-06T12:08:36.975Z,49.75
2017-08-06T12:09:36.669Z,50.42
2017-08-06T12:10:36.978Z,49.94
2017-08-06T12:11:36.991Z,49.37
2017-08-06T12:12:36.681Z,49.05
2017-08-06T12:13:36.983Z,50.47
2017-08-06T12:14:36.978Z,51.14
2017-08-06T12:15:36.661Z,49.6
2017-08-06T12:16:36.658Z,50.09
2017-08-06T12:17:36.999Z,52.2
2017-08-06T12:18:36.984Z,51.53
2017-08-06T12:19:36.984Z,50.27
2017-08-06T12:20:36.984Z,52.3
2017-08-06T12:21:36.984Z,51.75
2017-08-06T12:22:37.001Z,51.36
2017-08-06T12:23:37.003Z,55.31
2017-08-06T12:24:37.007Z,51.36
2017-08-06T12:25:36.986Z,51.84
2017-08-06T12:26:36.671Z,51.36
2017-08-06T12:27:36.988Z,51.26
2017-08-06T12:28:37.012Z,52.42
2017-08-06T12:29:36.665Z,51.36
2017-08-06T12:30:36.997Z,50.3
2017-08-06T12:31:36.991Z,51.94
2017-08-06T12:32:36.999Z,53.77
2017-08-06T12:33:36.678Z,52.33
2017-08-06T12:34:36.993Z,47.22
2017-08-06T12:35:36.669Z,47.12
2017-08-06T12:36:36.671Z,49.73
2017-08-06T12:37:36.674Z,49.22
2017-08-06T12:38:37.013Z,50.18
2017-08-06T12:39:36.991Z,51.92
2017-08-06T12:40:36.995Z,49.96
2017-08-06T12:41:37.008Z,51.89
2017-08-06T12:42:36.998Z,52.85
2017-08-06T12:43:37.002Z,52.56
2017-08-06T12:44:37.015Z,52.75
2017-08-06T12:45:36.674Z,53.62
2017-08-06T12:46:36.994Z,52.69
2017-08-06T12:47:37.005Z,53.55
2017-08-06T12:48:36.675Z,52.59
2017-08-06T12:49:36.674Z,54.13
2017-08-06T12:50:36.696Z,54.32
2017-08-06T12:51:36.996Z,52.3
2017-08-06T12:52:36.675Z,52.61
2017-08-06T12:53:36.997Z,51.84
2017-08-06T12:54:37.005Z,53.29